sensor_id;sensor_type;location;lat;lon;timestamp;P1;durP1;ratioP1;P2;durP2;ratioP2
45762;SDS011;37512;52.408;13.356;2023-05-19T00:00:25;5.53;;;1.67;;
45762;SDS011;37512;52.408;13.356;2023-05-19T00:04:28;8.88;;;2.35;;
45762;SDS011;37512;52.408;13.356;2023-05-19T00:08:31;5.65;;;1.75;;
45762;SDS011;37512;52.408;13.356;2023-05-19T00:12:34;4.50;;;1.50;;
45762;SDS011;37512;52.408;13.356;2023-05-19T00:16:37;2.80;;;1.50;;
45762;SDS011;37512;52.408;13.356;2023-05-19T00:20:39;6.13;;;1.73;;
45762;SDS011;37512;52.408;13.356;2023-05-19T00:24:41;3.22;;;1.60;;
45762;SDS011;37512;52.408;13.356;2023-05-19T00:28:43;3.88;;;1.50;;
45762;SDS011;37512;52.408;13.356;2023-05-19T00:32:44;4.53;;;1.48;;
45762;SDS011;37512;52.408;13.356;2023-05-19T00:36:46;7.55;;;2.15;;
45762;SDS011;37512;52.408;13.356;2023-05-19T00:40:47;4.63;;;1.42;;
45762;SDS011;37512;52.408;13.356;2023-05-19T00:44:49;5.03;;;1.83;;
45762;SDS011;37512;52.408;13.356;2023-05-19T00:48:51;4.70;;;1.80;;
45762;SDS011;37512;52.408;13.356;2023-05-19T00:52:55;9.13;;;1.92;;
45762;SDS011;37512;52.408;13.356;2023-05-19T00:56:57;4.13;;;1.65;;
45762;SDS011;37512;52.408;13.356;2023-05-19T01:00:59;4.38;;;1.40;;
45762;SDS011;37512;52.408;13.356;2023-05-19T01:05:05;3.30;;;1.73;;
45762;SDS011;37512;52.408;13.356;2023-05-19T01:09:07;5.97;;;1.70;;
45762;SDS011;37512;52.408;13.356;2023-05-19T01:13:09;4.53;;;1.60;;
45762;SDS011;37512;52.408;13.356;2023-05-19T01:17:35;3.97;;;1.42;;
45762;SDS011;37512;52.408;13.356;2023-05-19T01:21:55;2.10;;;1.30;;
45762;SDS011;37512;52.408;13.356;2023-05-19T01:30:55;1.98;;;1.40;;
45762;SDS011;37512;52.408;13.356;2023-05-19T01:35:00;7.80;;;1.85;;
45762;SDS011;37512;52.408;13.356;2023-05-19T01:39:03;4.03;;;1.70;;
45762;SDS011;37512;52.408;13.356;2023-05-19T01:43:06;5.50;;;1.65;;
45762;SDS011;37512;52.408;13.356;2023-05-19T01:47:10;4.75;;;1.88;;
45762;SDS011;37512;52.408;13.356;2023-05-19T01:51:12;6.53;;;1.85;;
45762;SDS011;37512;52.408;13.356;2023-05-19T01:55:14;7.28;;;1.75;;
45762;SDS011;37512;52.408;13.356;2023-05-19T02:12:43;5.00;;;1.77;;
45762;SDS011;37512;52.408;13.356;2023-05-19T02:16:47;6.70;;;1.50;;
45762;SDS011;37512;52.408;13.356;2023-05-19T02:20:49;5.13;;;1.40;;
45762;SDS011;37512;52.408;13.356;2023-05-19T02:24:50;3.67;;;1.65;;
45762;SDS011;37512;52.408;13.356;2023-05-19T02:28:52;6.45;;;1.83;;
45762;SDS011;37512;52.408;13.356;2023-05-19T02:32:53;6.60;;;1.98;;
45762;SDS011;37512;52.408;13.356;2023-05-19T02:36:55;9.70;;;1.77;;
45762;SDS011;37512;52.408;13.356;2023-05-19T02:40:57;4.70;;;1.55;;
45762;SDS011;37512;52.408;13.356;2023-05-19T02:44:59;3.70;;;1.70;;
45762;SDS011;37512;52.408;13.356;2023-05-19T02:49:00;9.30;;;1.73;;
45762;SDS011;37512;52.408;13.356;2023-05-19T02:53:02;2.17;;;1.20;;
45762;SDS011;37512;52.408;13.356;2023-05-19T02:57:04;3.67;;;1.50;;
45762;SDS011;37512;52.408;13.356;2023-05-19T03:01:07;3.42;;;1.40;;
45762;SDS011;37512;52.408;13.356;2023-05-19T03:05:09;3.70;;;1.83;;
45762;SDS011;37512;52.408;13.356;2023-05-19T03:09:11;2.03;;;1.27;;
45762;SDS011;37512;52.408;13.356;2023-05-19T03:13:15;6.10;;;1.60;;
45762;SDS011;37512;52.408;13.356;2023-05-19T03:17:17;5.00;;;1.80;;
45762;SDS011;37512;52.408;13.356;2023-05-19T03:21:18;3.58;;;1.40;;
45762;SDS011;37512;52.408;13.356;2023-05-19T03:25:20;1.63;;;1.17;;
45762;SDS011;37512;52.408;13.356;2023-05-19T03:29:22;5.63;;;2.05;;
45762;SDS011;37512;52.408;13.356;2023-05-19T03:33:24;3.95;;;1.63;;
45762;SDS011;37512;52.408;13.356;2023-05-19T03:37:25;5.65;;;1.73;;
45762;SDS011;37512;52.408;13.356;2023-05-19T03:41:27;6.57;;;1.75;;
45762;SDS011;37512;52.408;13.356;2023-05-19T03:45:28;5.97;;;1.73;;
45762;SDS011;37512;52.408;13.356;2023-05-19T03:49:30;4.72;;;2.08;;
45762;SDS011;37512;52.408;13.356;2023-05-19T03:53:31;3.88;;;1.45;;
45762;SDS011;37512;52.408;13.356;2023-05-19T03:57:33;4.50;;;1.88;;
45762;SDS011;37512;52.408;13.356;2023-05-19T04:01:34;6.53;;;1.38;;
45762;SDS011;37512;52.408;13.356;2023-05-19T04:05:36;5.10;;;1.48;;
45762;SDS011;37512;52.408;13.356;2023-05-19T04:09:38;2.70;;;1.40;;
45762;SDS011;37512;52.408;13.356;2023-05-19T04:13:40;8.02;;;1.58;;
45762;SDS011;37512;52.408;13.356;2023-05-19T04:17:41;2.72;;;1.40;;
45762;SDS011;37512;52.408;13.356;2023-05-19T04:21:44;3.50;;;1.60;;
45762;SDS011;37512;52.408;13.356;2023-05-19T04:25:46;4.93;;;1.80;;
45762;SDS011;37512;52.408;13.356;2023-05-19T04:29:48;5.43;;;1.70;;
45762;SDS011;37512;52.408;13.356;2023-05-19T04:33:50;3.78;;;1.70;;
45762;SDS011;37512;52.408;13.356;2023-05-19T04:37:53;3.47;;;1.42;;
45762;SDS011;37512;52.408;13.356;2023-05-19T04:41:55;7.88;;;2.03;;
45762;SDS011;37512;52.408;13.356;2023-05-19T04:45:57;4.18;;;1.98;;
45762;SDS011;37512;52.408;13.356;2023-05-19T04:49:58;4.47;;;1.67;;
45762;SDS011;37512;52.408;13.356;2023-05-19T04:54:00;4.65;;;2.17;;
45762;SDS011;37512;52.408;13.356;2023-05-19T04:58:02;10.15;;;2.13;;
45762;SDS011;37512;52.408;13.356;2023-05-19T05:02:04;3.95;;;2.10;;
45762;SDS011;37512;52.408;13.356;2023-05-19T05:06:06;6.60;;;2.20;;
45762;SDS011;37512;52.408;13.356;2023-05-19T05:10:09;5.78;;;1.80;;
45762;SDS011;37512;52.408;13.356;2023-05-19T05:14:10;7.18;;;2.03;;
45762;SDS011;37512;52.408;13.356;2023-05-19T05:18:13;3.65;;;2.05;;
45762;SDS011;37512;52.408;13.356;2023-05-19T05:22:15;6.25;;;2.10;;
45762;SDS011;37512;52.408;13.356;2023-05-19T05:26:17;3.80;;;1.70;;
45762;SDS011;37512;52.408;13.356;2023-05-19T05:30:20;4.63;;;2.15;;
45762;SDS011;37512;52.408;13.356;2023-05-19T05:34:21;5.30;;;2.25;;
45762;SDS011;37512;52.408;13.356;2023-05-19T05:38:23;4.90;;;2.58;;
45762;SDS011;37512;52.408;13.356;2023-05-19T05:42:24;5.68;;;2.28;;
45762;SDS011;37512;52.408;13.356;2023-05-19T05:46:30;7.28;;;2.40;;
45762;SDS011;37512;52.408;13.356;2023-05-19T05:50:32;5.00;;;2.15;;
45762;SDS011;37512;52.408;13.356;2023-05-19T05:54:34;5.38;;;1.98;;
45762;SDS011;37512;52.408;13.356;2023-05-19T05:58:36;9.60;;;2.60;;
45762;SDS011;37512;52.408;13.356;2023-05-19T06:02:41;4.78;;;2.08;;
45762;SDS011;37512;52.408;13.356;2023-05-19T06:06:46;3.30;;;2.30;;
45762;SDS011;37512;52.408;13.356;2023-05-19T06:10:48;5.90;;;2.55;;
45762;SDS011;37512;52.408;13.356;2023-05-19T06:14:49;5.88;;;2.40;;
45762;SDS011;37512;52.408;13.356;2023-05-19T06:18:52;9.10;;;2.50;;
45762;SDS011;37512;52.408;13.356;2023-05-19T06:22:53;6.35;;;2.15;;
45762;SDS011;37512;52.408;13.356;2023-05-19T06:26:55;6.10;;;2.60;;
45762;SDS011;37512;52.408;13.356;2023-05-19T06:30:57;5.75;;;2.95;;
45762;SDS011;37512;52.408;13.356;2023-05-19T06:34:58;5.15;;;2.60;;
45762;SDS011;37512;52.408;13.356;2023-05-19T06:39:00;5.72;;;3.30;;
45762;SDS011;37512;52.408;13.356;2023-05-19T06:43:03;5.82;;;2.50;;
45762;SDS011;37512;52.408;13.356;2023-05-19T06:47:05;7.63;;;2.17;;
45762;SDS011;37512;52.408;13.356;2023-05-19T06:51:06;4.15;;;2.20;;
45762;SDS011;37512;52.408;13.356;2023-05-19T06:55:10;4.05;;;2.33;;
45762;SDS011;37512;52.408;13.356;2023-05-19T06:59:11;5.05;;;2.28;;
45762;SDS011;37512;52.408;13.356;2023-05-19T07:03:13;6.25;;;2.80;;
45762;SDS011;37512;52.408;13.356;2023-05-19T07:07:15;5.40;;;2.80;;
45762;SDS011;37512;52.408;13.356;2023-05-19T07:11:16;3.97;;;2.17;;
45762;SDS011;37512;52.408;13.356;2023-05-19T07:15:25;4.75;;;2.20;;
45762;SDS011;37512;52.408;13.356;2023-05-19T07:19:26;7.43;;;2.38;;
45762;SDS011;37512;52.408;13.356;2023-05-19T07:23:36;6.93;;;2.40;;
45762;SDS011;37512;52.408;13.356;2023-05-19T07:27:38;5.30;;;2.42;;
45762;SDS011;37512;52.408;13.356;2023-05-19T07:31:39;4.38;;;2.15;;
45762;SDS011;37512;52.408;13.356;2023-05-19T07:35:41;6.68;;;2.15;;
45762;SDS011;37512;52.408;13.356;2023-05-19T07:39:44;7.70;;;3.03;;
45762;SDS011;37512;52.408;13.356;2023-05-19T07:43:46;5.45;;;2.20;;
45762;SDS011;37512;52.408;13.356;2023-05-19T07:47:49;5.13;;;2.42;;
45762;SDS011;37512;52.408;13.356;2023-05-19T07:51:51;5.20;;;2.13;;
45762;SDS011;37512;52.408;13.356;2023-05-19T07:55:53;10.27;;;2.55;;
45762;SDS011;37512;52.408;13.356;2023-05-19T07:59:57;6.20;;;2.30;;
45762;SDS011;37512;52.408;13.356;2023-05-19T08:03:59;5.20;;;2.45;;
45762;SDS011;37512;52.408;13.356;2023-05-19T08:08:03;3.58;;;2.17;;
45762;SDS011;37512;52.408;13.356;2023-05-19T08:12:05;2.60;;;2.00;;
45762;SDS011;37512;52.408;13.356;2023-05-19T08:16:06;5.22;;;2.00;;
45762;SDS011;37512;52.408;13.356;2023-05-19T08:20:08;4.00;;;2.80;;
45762;SDS011;37512;52.408;13.356;2023-05-19T08:24:10;5.55;;;2.30;;
45762;SDS011;37512;52.408;13.356;2023-05-19T08:28:12;3.63;;;2.20;;
45762;SDS011;37512;52.408;13.356;2023-05-19T08:32:13;4.55;;;2.20;;
45762;SDS011;37512;52.408;13.356;2023-05-19T08:36:15;2.95;;;1.80;;
45762;SDS011;37512;52.408;13.356;2023-05-19T08:40:17;3.75;;;2.30;;
45762;SDS011;37512;52.408;13.356;2023-05-19T08:44:19;3.67;;;2.20;;
45762;SDS011;37512;52.408;13.356;2023-05-19T08:48:21;3.45;;;2.20;;
45762;SDS011;37512;52.408;13.356;2023-05-19T08:56:51;5.18;;;2.13;;
45762;SDS011;37512;52.408;13.356;2023-05-19T09:00:52;4.03;;;1.70;;
45762;SDS011;37512;52.408;13.356;2023-05-19T09:04:56;3.05;;;1.48;;
45762;SDS011;37512;52.408;13.356;2023-05-19T09:08:58;3.95;;;1.60;;
45762;SDS011;37512;52.408;13.356;2023-05-19T09:13:00;2.75;;;1.70;;
45762;SDS011;37512;52.408;13.356;2023-05-19T09:17:01;3.17;;;1.35;;
45762;SDS011;37512;52.408;13.356;2023-05-19T09:21:03;2.47;;;1.30;;
45762;SDS011;37512;52.408;13.356;2023-05-19T09:25:17;3.30;;;1.63;;
45762;SDS011;37512;52.408;13.356;2023-05-19T09:29:24;2.83;;;1.60;;
45762;SDS011;37512;52.408;13.356;2023-05-19T09:33:26;4.72;;;2.03;;
45762;SDS011;37512;52.408;13.356;2023-05-19T09:37:29;5.13;;;1.58;;
45762;SDS011;37512;52.408;13.356;2023-05-19T09:41:32;2.13;;;1.23;;
45762;SDS011;37512;52.408;13.356;2023-05-19T09:45:33;2.13;;;1.20;;
45762;SDS011;37512;52.408;13.356;2023-05-19T09:49:35;2.85;;;1.42;;
45762;SDS011;37512;52.408;13.356;2023-05-19T09:53:36;2.83;;;1.45;;
45762;SDS011;37512;52.408;13.356;2023-05-19T09:57:39;4.32;;;1.75;;
45762;SDS011;37512;52.408;13.356;2023-05-19T10:01:41;3.25;;;1.17;;
45762;SDS011;37512;52.408;13.356;2023-05-19T10:05:46;2.95;;;1.10;;
45762;SDS011;37512;52.408;13.356;2023-05-19T10:09:48;2.95;;;1.17;;
45762;SDS011;37512;52.408;13.356;2023-05-19T10:13:51;5.75;;;1.13;;
45762;SDS011;37512;52.408;13.356;2023-05-19T10:17:52;2.80;;;1.35;;
45762;SDS011;37512;52.408;13.356;2023-05-19T10:21:55;2.92;;;1.30;;
45762;SDS011;37512;52.408;13.356;2023-05-19T10:25:57;2.65;;;1.25;;
45762;SDS011;37512;52.408;13.356;2023-05-19T10:30:06;2.45;;;1.30;;
45762;SDS011;37512;52.408;13.356;2023-05-19T10:39:03;5.63;;;1.38;;
45762;SDS011;37512;52.408;13.356;2023-05-19T10:48:12;4.28;;;1.48;;
45762;SDS011;37512;52.408;13.356;2023-05-19T10:52:18;2.90;;;1.30;;
45762;SDS011;37512;52.408;13.356;2023-05-19T10:56:27;2.00;;;1.00;;
45762;SDS011;37512;52.408;13.356;2023-05-19T11:00:34;2.23;;;1.47;;
45762;SDS011;37512;52.408;13.356;2023-05-19T11:04:47;5.20;;;1.25;;
45762;SDS011;37512;52.408;13.356;2023-05-19T11:09:01;2.20;;;0.93;;
45762;SDS011;37512;52.408;13.356;2023-05-19T11:13:17;2.65;;;1.30;;
45762;SDS011;37512;52.408;13.356;2023-05-19T11:17:20;3.90;;;1.27;;
45762;SDS011;37512;52.408;13.356;2023-05-19T11:21:22;5.15;;;1.05;;
45762;SDS011;37512;52.408;13.356;2023-05-19T11:25:39;2.10;;;1.23;;
45762;SDS011;37512;52.408;13.356;2023-05-19T11:29:41;2.85;;;1.15;;
45762;SDS011;37512;52.408;13.356;2023-05-19T11:33:43;2.70;;;1.42;;
45762;SDS011;37512;52.408;13.356;2023-05-19T11:37:45;3.40;;;1.90;;
45762;SDS011;37512;52.408;13.356;2023-05-19T11:41:50;3.50;;;1.60;;
45762;SDS011;37512;52.408;13.356;2023-05-19T11:45:54;4.57;;;1.45;;
45762;SDS011;37512;52.408;13.356;2023-05-19T11:49:56;7.93;;;1.70;;
45762;SDS011;37512;52.408;13.356;2023-05-19T11:53:57;2.00;;;1.30;;
45762;SDS011;37512;52.408;13.356;2023-05-19T11:58:00;11.13;;;1.23;;
45762;SDS011;37512;52.408;13.356;2023-05-19T12:06:14;4.45;;;1.27;;
45762;SDS011;37512;52.408;13.356;2023-05-19T12:10:20;2.30;;;1.35;;
45762;SDS011;37512;52.408;13.356;2023-05-19T12:14:24;4.22;;;1.52;;
45762;SDS011;37512;52.408;13.356;2023-05-19T12:18:28;6.28;;;3.28;;
45762;SDS011;37512;52.408;13.356;2023-05-19T12:22:33;3.95;;;2.65;;
45762;SDS011;37512;52.408;13.356;2023-05-19T12:26:35;4.88;;;2.08;;
45762;SDS011;37512;52.408;13.356;2023-05-19T12:30:37;3.10;;;1.40;;
45762;SDS011;37512;52.408;13.356;2023-05-19T12:34:39;3.05;;;1.40;;
45762;SDS011;37512;52.408;13.356;2023-05-19T12:38:42;3.50;;;1.27;;
45762;SDS011;37512;52.408;13.356;2023-05-19T12:42:44;3.30;;;1.63;;
45762;SDS011;37512;52.408;13.356;2023-05-19T12:46:46;2.33;;;1.50;;
45762;SDS011;37512;52.408;13.356;2023-05-19T12:50:52;2.03;;;1.20;;
45762;SDS011;37512;52.408;13.356;2023-05-19T12:55:06;2.20;;;1.30;;
45762;SDS011;37512;52.408;13.356;2023-05-19T12:59:11;3.03;;;1.27;;
45762;SDS011;37512;52.408;13.356;2023-05-19T13:03:40;2.45;;;1.60;;
45762;SDS011;37512;52.408;13.356;2023-05-19T13:07:53;4.45;;;1.98;;
45762;SDS011;37512;52.408;13.356;2023-05-19T13:11:55;3.15;;;1.45;;
45762;SDS011;37512;52.408;13.356;2023-05-19T13:15:56;1.83;;;1.27;;
45762;SDS011;37512;52.408;13.356;2023-05-19T13:19:58;3.10;;;1.30;;
45762;SDS011;37512;52.408;13.356;2023-05-19T13:24:00;1.98;;;1.40;;
45762;SDS011;37512;52.408;13.356;2023-05-19T13:28:02;5.55;;;1.35;;
45762;SDS011;37512;52.408;13.356;2023-05-19T13:32:06;5.88;;;1.65;;
45762;SDS011;37512;52.408;13.356;2023-05-19T13:36:08;5.75;;;1.55;;
45762;SDS011;37512;52.408;13.356;2023-05-19T13:40:10;2.50;;;1.35;;
45762;SDS011;37512;52.408;13.356;2023-05-19T13:44:12;4.65;;;1.63;;
45762;SDS011;37512;52.408;13.356;2023-05-19T13:48:13;2.92;;;1.60;;
45762;SDS011;37512;52.408;13.356;2023-05-19T13:52:15;2.00;;;1.30;;
45762;SDS011;37512;52.408;13.356;2023-05-19T13:56:16;3.15;;;1.60;;
45762;SDS011;37512;52.408;13.356;2023-05-19T14:00:18;4.20;;;1.52;;
45762;SDS011;37512;52.408;13.356;2023-05-19T14:04:20;2.25;;;1.48;;
45762;SDS011;37512;52.408;13.356;2023-05-19T14:08:21;1.33;;;0.93;;
45762;SDS011;37512;52.408;13.356;2023-05-19T14:12:24;1.58;;;1.23;;
45762;SDS011;37512;52.408;13.356;2023-05-19T14:16:40;2.45;;;1.45;;
45762;SDS011;37512;52.408;13.356;2023-05-19T14:20:41;2.90;;;1.58;;
45762;SDS011;37512;52.408;13.356;2023-05-19T14:24:43;5.10;;;1.67;;
45762;SDS011;37512;52.408;13.356;2023-05-19T14:28:44;3.13;;;1.50;;
45762;SDS011;37512;52.408;13.356;2023-05-19T14:32:46;3.42;;;1.58;;
45762;SDS011;37512;52.408;13.356;2023-05-19T14:36:48;2.08;;;1.40;;
45762;SDS011;37512;52.408;13.356;2023-05-19T14:40:49;4.55;;;1.60;;
45762;SDS011;37512;52.408;13.356;2023-05-19T14:44:51;3.70;;;1.48;;
45762;SDS011;37512;52.408;13.356;2023-05-19T14:48:52;3.55;;;2.13;;
45762;SDS011;37512;52.408;13.356;2023-05-19T14:52:54;2.33;;;1.40;;
45762;SDS011;37512;52.408;13.356;2023-05-19T14:56:57;3.40;;;1.58;;
45762;SDS011;37512;52.408;13.356;2023-05-19T15:00:58;2.67;;;1.50;;
45762;SDS011;37512;52.408;13.356;2023-05-19T15:05:00;3.97;;;1.83;;
45762;SDS011;37512;52.408;13.356;2023-05-19T15:09:02;2.08;;;1.38;;
45762;SDS011;37512;52.408;13.356;2023-05-19T15:13:03;2.13;;;1.25;;
45762;SDS011;37512;52.408;13.356;2023-05-19T15:17:05;2.10;;;1.20;;
45762;SDS011;37512;52.408;13.356;2023-05-19T15:21:07;3.30;;;1.65;;
45762;SDS011;37512;52.408;13.356;2023-05-19T15:25:08;3.70;;;1.55;;
45762;SDS011;37512;52.408;13.356;2023-05-19T15:29:10;2.60;;;1.92;;
45762;SDS011;37512;52.408;13.356;2023-05-19T15:33:11;3.33;;;1.23;;
45762;SDS011;37512;52.408;13.356;2023-05-19T15:37:13;2.97;;;1.58;;
45762;SDS011;37512;52.408;13.356;2023-05-19T15:41:15;2.53;;;1.35;;
45762;SDS011;37512;52.408;13.356;2023-05-19T15:45:17;2.33;;;1.50;;
45762;SDS011;37512;52.408;13.356;2023-05-19T15:49:18;2.75;;;1.45;;
45762;SDS011;37512;52.408;13.356;2023-05-19T15:53:20;3.40;;;2.13;;
45762;SDS011;37512;52.408;13.356;2023-05-19T15:57:21;14.88;;;8.80;;
45762;SDS011;37512;52.408;13.356;2023-05-19T16:01:23;4.15;;;1.90;;
45762;SDS011;37512;52.408;13.356;2023-05-19T16:05:26;3.13;;;1.60;;
45762;SDS011;37512;52.408;13.356;2023-05-19T16:09:28;5.00;;;1.88;;
45762;SDS011;37512;52.408;13.356;2023-05-19T16:13:29;3.28;;;2.28;;
45762;SDS011;37512;52.408;13.356;2023-05-19T16:17:33;3.47;;;1.58;;
45762;SDS011;37512;52.408;13.356;2023-05-19T16:21:35;4.30;;;1.52;;
45762;SDS011;37512;52.408;13.356;2023-05-19T16:25:36;2.40;;;1.10;;
45762;SDS011;37512;52.408;13.356;2023-05-19T16:29:38;10.23;;;2.15;;
45762;SDS011;37512;52.408;13.356;2023-05-19T16:33:40;5.82;;;1.77;;
45762;SDS011;37512;52.408;13.356;2023-05-19T16:37:41;2.58;;;1.60;;
45762;SDS011;37512;52.408;13.356;2023-05-19T16:41:43;2.42;;;1.50;;
45762;SDS011;37512;52.408;13.356;2023-05-19T16:45:44;3.00;;;2.00;;
45762;SDS011;37512;52.408;13.356;2023-05-19T16:49:46;6.10;;;2.72;;
45762;SDS011;37512;52.408;13.356;2023-05-19T16:53:48;3.65;;;2.63;;
45762;SDS011;37512;52.408;13.356;2023-05-19T16:57:49;3.67;;;1.70;;
45762;SDS011;37512;52.408;13.356;2023-05-19T17:01:51;4.85;;;1.60;;
45762;SDS011;37512;52.408;13.356;2023-05-19T17:05:52;4.38;;;2.25;;
45762;SDS011;37512;52.408;13.356;2023-05-19T17:09:54;4.65;;;2.10;;
45762;SDS011;37512;52.408;13.356;2023-05-19T17:13:56;5.85;;;1.85;;
45762;SDS011;37512;52.408;13.356;2023-05-19T17:17:57;2.03;;;1.50;;
45762;SDS011;37512;52.408;13.356;2023-05-19T17:21:59;1.92;;;1.58;;
45762;SDS011;37512;52.408;13.356;2023-05-19T17:26:01;5.88;;;2.20;;
45762;SDS011;37512;52.408;13.356;2023-05-19T17:30:02;2.50;;;1.80;;
45762;SDS011;37512;52.408;13.356;2023-05-19T17:34:04;2.85;;;1.70;;
45762;SDS011;37512;52.408;13.356;2023-05-19T17:38:06;4.93;;;1.90;;
45762;SDS011;37512;52.408;13.356;2023-05-19T17:42:07;2.65;;;1.83;;
45762;SDS011;37512;52.408;13.356;2023-05-19T17:46:09;3.78;;;2.70;;
45762;SDS011;37512;52.408;13.356;2023-05-19T17:50:11;6.22;;;2.03;;
45762;SDS011;37512;52.408;13.356;2023-05-19T17:54:13;5.03;;;2.97;;
45762;SDS011;37512;52.408;13.356;2023-05-19T17:58:15;5.35;;;1.95;;
45762;SDS011;37512;52.408;13.356;2023-05-19T18:02:17;3.42;;;1.70;;
45762;SDS011;37512;52.408;13.356;2023-05-19T18:06:19;4.78;;;2.38;;
45762;SDS011;37512;52.408;13.356;2023-05-19T18:10:21;3.05;;;1.90;;
45762;SDS011;37512;52.408;13.356;2023-05-19T18:14:25;3.90;;;2.03;;
45762;SDS011;37512;52.408;13.356;2023-05-19T18:18:27;3.00;;;1.85;;
45762;SDS011;37512;52.408;13.356;2023-05-19T18:22:28;5.80;;;2.30;;
45762;SDS011;37512;52.408;13.356;2023-05-19T18:26:30;9.38;;;3.70;;
45762;SDS011;37512;52.408;13.356;2023-05-19T18:30:33;5.20;;;2.00;;
45762;SDS011;37512;52.408;13.356;2023-05-19T18:34:35;3.45;;;1.95;;
45762;SDS011;37512;52.408;13.356;2023-05-19T18:38:37;4.20;;;1.98;;
45762;SDS011;37512;52.408;13.356;2023-05-19T18:42:39;12.60;;;2.20;;
45762;SDS011;37512;52.408;13.356;2023-05-19T18:46:41;4.65;;;1.80;;
45762;SDS011;37512;52.408;13.356;2023-05-19T18:50:42;4.38;;;1.80;;
45762;SDS011;37512;52.408;13.356;2023-05-19T18:54:44;5.47;;;1.75;;
45762;SDS011;37512;52.408;13.356;2023-05-19T18:58:47;4.57;;;1.88;;
45762;SDS011;37512;52.408;13.356;2023-05-19T19:02:48;3.10;;;2.28;;
45762;SDS011;37512;52.408;13.356;2023-05-19T19:06:50;4.13;;;2.53;;
45762;SDS011;37512;52.408;13.356;2023-05-19T19:10:52;5.70;;;2.58;;
45762;SDS011;37512;52.408;13.356;2023-05-19T19:14:59;4.65;;;2.45;;
45762;SDS011;37512;52.408;13.356;2023-05-19T19:19:00;5.18;;;1.83;;
45762;SDS011;37512;52.408;13.356;2023-05-19T19:23:02;2.50;;;1.70;;
45762;SDS011;37512;52.408;13.356;2023-05-19T19:27:06;3.00;;;2.03;;
45762;SDS011;37512;52.408;13.356;2023-05-19T19:31:08;4.68;;;2.95;;
45762;SDS011;37512;52.408;13.356;2023-05-19T19:35:09;3.63;;;2.30;;
45762;SDS011;37512;52.408;13.356;2023-05-19T19:39:11;4.88;;;3.75;;
45762;SDS011;37512;52.408;13.356;2023-05-19T19:43:12;6.07;;;3.45;;
45762;SDS011;37512;52.408;13.356;2023-05-19T19:47:14;7.28;;;3.53;;
45762;SDS011;37512;52.408;13.356;2023-05-19T19:51:16;10.52;;;4.93;;
45762;SDS011;37512;52.408;13.356;2023-05-19T19:55:17;3.60;;;2.40;;
45762;SDS011;37512;52.408;13.356;2023-05-19T19:59:19;3.28;;;2.22;;
45762;SDS011;37512;52.408;13.356;2023-05-19T20:03:20;7.53;;;2.80;;
45762;SDS011;37512;52.408;13.356;2023-05-19T20:07:22;3.08;;;2.17;;
45762;SDS011;37512;52.408;13.356;2023-05-19T20:11:24;5.32;;;3.00;;
45762;SDS011;37512;52.408;13.356;2023-05-19T20:15:26;4.93;;;3.20;;
45762;SDS011;37512;52.408;13.356;2023-05-19T20:19:28;6.97;;;3.22;;
45762;SDS011;37512;52.408;13.356;2023-05-19T20:23:30;5.28;;;3.10;;
45762;SDS011;37512;52.408;13.356;2023-05-19T20:27:31;5.63;;;3.05;;
45762;SDS011;37512;52.408;13.356;2023-05-19T20:31:32;3.60;;;2.10;;
45762;SDS011;37512;52.408;13.356;2023-05-19T20:35:34;4.10;;;2.60;;
45762;SDS011;37512;52.408;13.356;2023-05-19T20:39:36;3.88;;;2.38;;
45762;SDS011;37512;52.408;13.356;2023-05-19T20:43:38;5.65;;;2.92;;
45762;SDS011;37512;52.408;13.356;2023-05-19T20:47:39;8.35;;;4.10;;
45762;SDS011;37512;52.408;13.356;2023-05-19T20:51:41;4.57;;;3.13;;
45762;SDS011;37512;52.408;13.356;2023-05-19T20:55:43;5.30;;;2.97;;
45762;SDS011;37512;52.408;13.356;2023-05-19T20:59:45;5.20;;;3.85;;
45762;SDS011;37512;52.408;13.356;2023-05-19T21:03:46;4.03;;;3.17;;
45762;SDS011;37512;52.408;13.356;2023-05-19T21:07:48;6.05;;;4.53;;
45762;SDS011;37512;52.408;13.356;2023-05-19T21:11:49;5.63;;;3.17;;
45762;SDS011;37512;52.408;13.356;2023-05-19T21:15:54;7.03;;;4.75;;
45762;SDS011;37512;52.408;13.356;2023-05-19T21:19:56;8.68;;;5.13;;
45762;SDS011;37512;52.408;13.356;2023-05-19T21:23:59;13.05;;;7.93;;
45762;SDS011;37512;52.408;13.356;2023-05-19T21:28:01;12.85;;;7.63;;
45762;SDS011;37512;52.408;13.356;2023-05-19T21:32:03;12.93;;;7.80;;
45762;SDS011;37512;52.408;13.356;2023-05-19T21:36:05;4.07;;;2.33;;
45762;SDS011;37512;52.408;13.356;2023-05-19T21:40:07;7.97;;;2.45;;
45762;SDS011;37512;52.408;13.356;2023-05-19T21:44:09;5.60;;;3.10;;
45762;SDS011;37512;52.408;13.356;2023-05-19T21:48:11;4.70;;;2.88;;
45762;SDS011;37512;52.408;13.356;2023-05-19T21:52:13;6.00;;;2.67;;
45762;SDS011;37512;52.408;13.356;2023-05-19T21:56:17;4.38;;;2.30;;
45762;SDS011;37512;52.408;13.356;2023-05-19T22:00:19;5.22;;;2.83;;
45762;SDS011;37512;52.408;13.356;2023-05-19T22:04:21;5.93;;;2.47;;
45762;SDS011;37512;52.408;13.356;2023-05-19T22:08:22;4.95;;;2.70;;
45762;SDS011;37512;52.408;13.356;2023-05-19T22:12:24;3.28;;;2.25;;
45762;SDS011;37512;52.408;13.356;2023-05-19T22:16:26;5.13;;;2.38;;
45762;SDS011;37512;52.408;13.356;2023-05-19T22:20:27;3.75;;;2.47;;
45762;SDS011;37512;52.408;13.356;2023-05-19T22:24:29;6.88;;;3.08;;
45762;SDS011;37512;52.408;13.356;2023-05-19T22:28:31;6.22;;;3.13;;
45762;SDS011;37512;52.408;13.356;2023-05-19T22:32:32;5.80;;;2.63;;
45762;SDS011;37512;52.408;13.356;2023-05-19T22:36:35;5.40;;;2.35;;
45762;SDS011;37512;52.408;13.356;2023-05-19T22:40:37;4.28;;;2.92;;
45762;SDS011;37512;52.408;13.356;2023-05-19T22:44:39;6.40;;;2.83;;
45762;SDS011;37512;52.408;13.356;2023-05-19T22:48:40;6.38;;;2.90;;
45762;SDS011;37512;52.408;13.356;2023-05-19T22:52:42;5.63;;;2.60;;
45762;SDS011;37512;52.408;13.356;2023-05-19T22:56:43;4.72;;;2.50;;
45762;SDS011;37512;52.408;13.356;2023-05-19T23:00:46;3.85;;;2.90;;
45762;SDS011;37512;52.408;13.356;2023-05-19T23:04:48;3.75;;;2.35;;
45762;SDS011;37512;52.408;13.356;2023-05-19T23:09:07;4.85;;;2.85;;
45762;SDS011;37512;52.408;13.356;2023-05-19T23:13:09;4.90;;;3.25;;
45762;SDS011;37512;52.408;13.356;2023-05-19T23:17:12;7.03;;;3.00;;
45762;SDS011;37512;52.408;13.356;2023-05-19T23:21:13;3.55;;;2.55;;
45762;SDS011;37512;52.408;13.356;2023-05-19T23:25:15;5.15;;;3.35;;
45762;SDS011;37512;52.408;13.356;2023-05-19T23:29:16;7.65;;;3.00;;
45762;SDS011;37512;52.408;13.356;2023-05-19T23:33:18;6.78;;;3.20;;
45762;SDS011;37512;52.408;13.356;2023-05-19T23:37:19;4.63;;;2.88;;
45762;SDS011;37512;52.408;13.356;2023-05-19T23:41:21;7.10;;;2.80;;
45762;SDS011;37512;52.408;13.356;2023-05-19T23:45:22;4.20;;;2.65;;
45762;SDS011;37512;52.408;13.356;2023-05-19T23:49:24;5.10;;;2.88;;
45762;SDS011;37512;52.408;13.356;2023-05-19T23:53:26;6.15;;;3.10;;
45762;SDS011;37512;52.408;13.356;2023-05-19T23:57:27;3.92;;;2.85;;
